Flight Track Log - Related Links

Times and Time Zones

All times are in EDT time to prevent confusion due to time zone crossing. See the DAL2057 flight status page for this flight to view local times or setup timezone preferences in your user account.

Time Position Orientation Groundspeed Altitude Reporting Facility
EDT Latitude Longitude Course Direction KTS MPH feet Rate Location/Type
Mon 06:51:51 AM 40.8167 -73.9167 270° West 184 212 2,700  Level New York TRACON
Mon 06:52:51 AM 40.8833 -73.9667 330° Northwest 255 293 5,300 3,000 Climbing New York TRACON
Mon 06:53:00 AM 40.6901 -74.2598 258° West  Level FlightAware Approximate
Mon 06:53:51 AM 40.9000 -74.0500 285° West 275 316 8,700  Level New York TRACON
Mon 06:54:00 AM 40.6664 -74.4021 259° West  Level FlightAware Approximate
Mon 06:54:51 AM 40.8667 -74.1500 246° West 286 329 11,700  Level New York TRACON
Mon 06:55:00 AM 40.6444 -74.5449 259° West  Level FlightAware Approximate
Mon 06:55:51 AM 40.8333 -74.2667 249° West 349 402 13,300  Level New York TRACON
Mon 06:56:00 AM 40.6167 -74.6782 270° West  Level FlightAware Approximate
Mon 06:56:51 AM 40.8000 -74.3833 249° West 387 445 15,500  Level New York TRACON
Mon 06:59:05 AM 40.6911 -74.6683 243° Southwest 393 452 17,000 469 Climbing New York Center
Mon 07:00:03 AM 40.6497 -74.7808 244° Southwest 393 452 17,000 458 Level New York Center
Mon 07:01:03 AM 40.5989 -74.9256 245° Southwest 398 458 17,900 1,438 Climbing New York Center
Mon 07:02:04 AM 40.5533 -75.0375 242° Southwest 391 450 19,900 1,983 Climbing New York Center
Mon 07:03:04 AM 40.4800 -75.1558 231° Southwest 396 456 21,900 1,059 Climbing New York Center
Mon 07:04:03 AM 40.4092 -75.2683 230° Southwest 412 474 22,000 555 Climbing New York Center
Mon 07:05:03 AM 40.3358 -75.3861 231° Southwest 419 482 23,000 1,140 Climbing New York Center
Mon 07:06:04 AM 40.2625 -75.5036 231° Southwest 419 482 24,300 1,450 Climbing New York Center
Mon 07:07:03 AM 40.1886 -75.6292 232° Southwest 430 495 25,900 950 Climbing New York Center
Mon 07:08:04 AM 40.1225 -75.7603 237° Southwest 435 501 26,200 893 Climbing New York Center
Mon 07:09:04 AM 40.0564 -75.8964 238° Southwest 440 506 27,700 1,289 Climbing New York Center
Mon 07:10:05 AM 39.9900 -76.0325 238° Southwest 445 512 28,800 1,714 Climbing New York Center
Mon 07:11:03 AM 39.9194 -76.1625 235° Southwest 445 512 31,100 2,083 Climbing New York Center
Mon 07:12:06 AM 39.8442 -76.3003 235° Southwest 440 506 33,000 950 Climbing New York Center
Mon 07:13:03 AM 39.7775 -76.4300 236° Southwest 434 499 33,000 153 Level New York Center
Mon 07:14:04 AM 39.7153 -76.5544 237° Southwest 428 493 33,300 417 Climbing New York Center
Mon 07:15:27 AM 39.6208 -76.7311 235° Southwest 424 488 34,000 500 Climbing Washington Center
Mon 07:16:28 AM 39.5550 -76.8564 236° Southwest 424 488 34,500 992 Climbing Washington Center
Mon 07:17:28 AM 39.4889 -76.9817 236° Southwest 424 488 36,000 750 Climbing Washington Center
Mon 07:18:28 AM 39.4025 -77.0769 220° Southwest 418 481 36,000  Level Washington Center
Mon 07:19:27 AM 39.3136 -77.1689 219° Southwest 413 475 36,000  Level Washington Center
Mon 07:20:28 AM 39.2228 -77.2633 219° Southwest 413 475 36,000  Level Washington Center
Mon 07:21:29 AM 39.1339 -77.3550 219° Southwest 419 482 36,000  Level Washington Center
Mon 07:22:27 AM 39.0428 -77.4517 220° Southwest 424 488 36,000  Level Washington Center
Mon 07:23:28 AM 38.9603 -77.5378 219° Southwest 430 495 36,000 49 Level Washington Center
Mon 07:24:29 AM 38.8606 -77.6417 219° Southwest 430 495 36,100  Climbing Washington Center
Mon 07:25:27 AM 38.7819 -77.7247 219° Southwest 423 487 36,000 -50 Descending Washington Center
Mon 07:26:28 AM 38.6822 -77.8231 218° Southwest 443 510 36,000  Level Washington Center
Mon 07:27:29 AM 38.6050 -77.9269 226° Southwest 430 495 36,000  Level Washington Center
Mon 07:28:29 AM 38.5361 -78.0442 233° Southwest 425 489 36,000  Level Washington Center
Mon 07:29:27 AM 38.4669 -78.1639 234° Southwest 425 489 36,000  Level Washington Center
Mon 07:30:28 AM 38.3956 -78.2833 233° Southwest 425 489 36,000  Level Washington Center
Mon 07:31:29 AM 38.3258 -78.4025 233° Southwest 425 489 36,000 153 Level Washington Center
Mon 07:32:26 AM 38.2564 -78.5217 233° Southwest 425 489 36,300 756 Climbing Washington Center
Mon 07:33:28 AM 38.1911 -78.6353 234° Southwest 420 483 37,500 1,082 Climbing Washington Center
Mon 07:34:28 AM 38.1147 -78.7642 233° Southwest 420 483 38,500 824 Climbing Washington Center
Mon 07:35:39 AM 38.0275 -78.9053 232° Southwest 425 489 39,300 641 Climbing Washington Center
Mon 07:36:39 AM 37.9553 -79.0233 232° Southwest 425 489 39,900 347 Climbing Washington Center
Mon 07:37:40 AM 37.8919 -79.1258 232° Southwest 425 489 40,000 49 Climbing Washington Center
Mon 07:38:41 AM 37.8133 -79.2350 228° Southwest 425 489 40,000  Level Washington Center
Mon 07:39:39 AM 37.7328 -79.3467 228° Southwest 425 489 40,000  Level Washington Center
Mon 07:40:40 AM 37.6392 -79.4733 227° Southwest 442 509 40,000  Level Washington Center
Mon 07:41:41 AM 37.5647 -79.5769 228° Southwest 442 509 40,000  Level Washington Center
Mon 07:42:38 AM 37.4750 -79.7003 228° Southwest 442 509 40,000  Level Washington Center
Mon 07:43:41 AM 37.3983 -79.8061 228° Southwest 448 516 40,000  Level Washington Center
Mon 07:45:30 AM 37.2353 -80.0192 226° Southwest 428 493 40,000  Level Atlanta Center
Mon 07:46:30 AM 37.1533 -80.1328 228° Southwest 433 498 40,000  Level Atlanta Center
Mon 07:47:30 AM 37.0775 -80.2356 227° Southwest 433 498 40,000  Level Atlanta Center
Mon 07:48:30 AM 36.9953 -80.3433 226° Southwest 433 498 40,000  Level Atlanta Center
Mon 07:49:30 AM 36.9111 -80.4564 227° Southwest 433 498 40,000  Level Atlanta Center
Mon 07:50:30 AM 36.8186 -80.5797 227° Southwest 433 498 40,000  Level Atlanta Center
Mon 07:51:30 AM 36.7383 -80.6869 227° Southwest 428 493 40,000  Level Atlanta Center
Mon 07:52:30 AM 36.6558 -80.7989 227° Southwest 435 501 40,000  Level Atlanta Center
Mon 07:53:30 AM 36.5811 -80.8950 226° Southwest 435 501 40,000  Level Atlanta Center
Mon 07:54:30 AM 36.4964 -81.0094 227° Southwest 435 501 40,000  Level Atlanta Center
Mon 07:55:30 AM 36.4136 -81.1183 227° Southwest 435 501 40,000  Level Atlanta Center
Mon 07:56:30 AM 36.3286 -81.2322 227° Southwest 440 506 40,000 -200 Level Atlanta Center
Mon 07:57:30 AM 36.2456 -81.3408 227° Southwest 440 506 39,600 -850 Descending Atlanta Center
Mon 07:58:30 AM 36.1603 -81.4517 226° Southwest 440 506 38,300 -800 Descending Atlanta Center
Mon 07:59:30 AM 36.0750 -81.5647 227° Southwest 440 506 38,000 -150 Descending Atlanta Center
Mon 08:00:30 AM 35.9897 -81.6778 227° Southwest 440 506 38,000 -50 Level Atlanta Center
Mon 08:01:30 AM 35.9042 -81.7853 226° Southwest 440 506 37,900 -800 Descending Atlanta Center
Mon 08:02:30 AM 35.8144 -81.9006 226° Southwest 453 521 36,400 -1,400 Descending Atlanta Center
Mon 08:03:30 AM 35.7264 -82.0103 225° Southwest 453 521 35,100 -700 Descending Atlanta Center
Mon 08:04:30 AM 35.6306 -82.1353 227° Southwest 458 527 35,000 -50 Descending Atlanta Center
Mon 08:05:30 AM 35.5425 -82.2469 226° Southwest 464 534 35,000  Level Atlanta Center
Mon 08:06:30 AM 35.4522 -82.3586 225° Southwest 459 528 35,000 -250 Level Atlanta Center
Mon 08:07:30 AM 35.3619 -82.4700 225° Southwest 459 528 34,500 -850 Descending Atlanta Center
Mon 08:08:30 AM 35.2692 -82.5736 222° Southwest 454 522 33,300 -1,150 Descending Atlanta Center
Mon 08:09:30 AM 35.1828 -82.6589 219° Southwest 454 522 32,200 -1,150 Descending Atlanta Center
Mon 08:10:30 AM 35.0858 -82.7672 222° Southwest 465 535 31,000 -1,200 Descending Atlanta Center
Mon 08:11:30 AM 34.9886 -82.8725 222° Southwest 470 541 29,800 -1,450 Descending Atlanta Center
Mon 08:12:30 AM 34.8792 -82.9931 222° Southwest 476 548 28,100 -1,600 Descending Atlanta Center
Mon 08:13:30 AM 34.7800 -83.0956 220° Southwest 482 555 26,600 -1,800 Descending Atlanta Center
Mon 08:14:30 AM 34.6806 -83.2028 222° Southwest 487 560 24,500 -2,200 Descending Atlanta Center
Mon 08:15:30 AM 34.5831 -83.3047 221° Southwest 468 539 22,200 -2,200 Descending Atlanta Center
Mon 08:16:30 AM 34.5083 -83.3933 224° Southwest 446 513 20,100 -1,850 Descending Atlanta Center
Mon 08:17:30 AM 34.4150 -83.4950 222° Southwest 413 475 18,500 -1,750 Descending Atlanta Center
Mon 08:18:30 AM 34.3464 -83.5658 220° Southwest 394 453 16,600 -1,950 Descending Atlanta Center
Mon 08:19:30 AM 34.2653 -83.6517 221° Southwest 389 448 14,600 -1,900 Descending Atlanta Center
Mon 08:20:30 AM 34.1906 -83.7325 222° Southwest 381 438 12,800 -1,150 Descending Atlanta Center
Mon 08:21:30 AM 34.1197 -83.8056 221° Southwest 354 407 12,300 -700 Descending Atlanta Center
Mon 08:22:30 AM 34.0550 -83.8783 223° Southwest 315 362 11,400 -1,200 Descending Atlanta Center
Mon 08:23:30 AM 33.9989 -83.9386 222° Southwest 287 330 9,900 -1,200 Descending Atlanta Center
Mon 08:24:30 AM 33.9300 -83.9711 201° Southwest 263 303 9,000 -450 Descending Atlanta Center
Mon 08:25:30 AM 33.8506 -83.9714 180° South 275 316 9,000 -300 Level Atlanta Center
Mon 08:26:30 AM 33.7733 -83.9739 182° South 288 331 8,400 -1,000 Descending Atlanta Center
Mon 08:27:30 AM 33.7025 -84.0014 198° South 277 319 7,000 -1,200 Descending Atlanta Center
Mon 08:28:30 AM 33.6439 -84.0464 213° Southwest 261 300 6,000 -804 Descending Atlanta Center
Mon 08:30:29 AM 33.6333 -84.1833 265° West 202 232 4,600 -771 Descending Atlanta TRACON
Mon 08:31:29 AM 33.6333 -84.2500 270° West 181 208 3,700 -900 Descending Atlanta TRACON
Mon 08:32:29 AM 33.6333 -84.3000 270° West 181 208 2,800 -895 Descending Atlanta TRACON
Mon 08:33:23 AM 33.6333 -84.3500 270° West 158 182 2,000 -889 Descending Atlanta TRACON

Login

Don't have an account? Register now (free) for customized features, flight alerts, and more!